ADDS METAR Data INFO
IDs: Format: Raw Decoded Include TAF

Data at: 0211 UTC 19 Jul 2018

KSEP 190155Z AUTO 11007KT 10SM SCT120 34/13 A2990 RMK AO2 T03440131
KSEP 190135Z AUTO 11004KT 10SM SCT120 35/13 A2990 RMK AO2 T03500128
KSEP 190115Z AUTO 11004KT 10SM CLR 36/13 A2990 RMK AO2 T03630125
KSEP 190055Z AUTO 10004KT 10SM CLR 38/12 A2990 RMK AO2 T03750122
KSEP 190035Z AUTO 12005KT 10SM CLR 38/12 A2990 RMK AO2 T03830118
KSEP 190015Z AUTO 13007KT 10SM SCT110 39/12 A2990 RMK AO2 T03890118
KSEP 182355Z AUTO 10005KT 10SM BKN110 39/12 A2989 RMK AO2 T03930117 10410 20371
KSEP 182335Z AUTO 11008KT 10SM BKN110 40/12 A2990 RMK AO2 T04000116
KSEP 182315Z AUTO 10004KT 10SM BKN110 40/11 A2990 RMK AO2 T04040112
KSEP 182255Z AUTO 00000KT 10SM CLR 40/10 A2991 RMK AO2 T04030102
KSEP 182235Z AUTO 00000KT 10SM CLR 40/10 A2991 RMK AO2 T04010095
KSEP 182215Z AUTO 00000KT 10SM CLR 41/10 A2992 RMK AO2 T04050099
KSEP 182155Z AUTO 00000KT 10SM SCT110 41/09 A2993 RMK AO2 T04090094
KSEP 182135Z AUTO 00000KT 10SM CLR 40/11 A2993 RMK AO2 T03970108
KSEP 182115Z AUTO 00000KT 10SM CLR 40/11 A2994 RMK AO2 T04000114
KSEP 182055Z AUTO 00000KT 10SM CLR 40/11 A2995 RMK AO2 T03990114
KSEP 182035Z AUTO 23005KT 10SM CLR 40/11 A2995 RMK AO2 T03980110
KSEP 182015Z AUTO 27007KT 10SM SCT100 39/12 A2996 RMK AO2 T03910121
KSEP 181955Z AUTO 00000KT 10SM CLR 38/12 A2997 RMK AO2 T03810122
KSEP 181935Z AUTO 00000KT 10SM CLR 39/13 A2998 RMK AO2 T03860131
KSEP 181915Z AUTO 27010G14KT 10SM CLR 39/13 A2998 RMK AO2 T03860126
KSEP 181855Z AUTO 25007KT 10SM CLR 39/12 A2999 RMK AO2 T03850122
KSEP 181835Z AUTO 17006KT 10SM CLR 38/11 A3000 RMK AO2 T03840114
KSEP 181815Z AUTO 24003KT 10SM CLR 38/16 A3000 RMK AO2 T03800160
KSEP 181755Z AUTO 27006KT 10SM CLR 37/16 A3001 RMK AO2 T03700160 10370 20223
KSEP 181735Z AUTO 27007KT 10SM CLR 37/16 A3002 RMK AO2 T03660163
KSEP 181715Z AUTO 21007KT 180V240 10SM CLR 36/17 A3002 RMK AO2 T03580169
KSEP 181655Z AUTO 25006KT 10SM CLR 35/18 A3002 RMK AO2 T03510180
KSEP 181635Z AUTO 24011KT 10SM CLR 35/18 A3003 RMK AO2 T03460180
KSEP 181615Z AUTO 25008KT 10SM CLR 34/19 A3004 RMK AO2 T03390186
KSEP 181555Z AUTO 23009G14KT 10SM CLR 33/19 A3004 RMK AO2 T03310188
KSEP 181535Z AUTO 23010G15KT 10SM CLR 33/19 A3004 RMK AO2 T03260190
KSEP 181515Z AUTO 23007KT 10SM CLR 32/20 A3005 RMK AO2 T03160195
KSEP 181455Z AUTO 23009KT 10SM CLR 31/20 A3005 RMK AO2 T03120197
KSEP 181435Z AUTO 23009G15KT 10SM CLR 30/20 A3006 RMK AO2 T03000197
KSEP 181415Z AUTO 23009KT 10SM CLR 29/20 A3006 RMK AO2 T02920198
KSEP 181355Z AUTO 23007KT 10SM CLR 29/20 A3006 RMK AO2 T02860200
KSEP 181335Z AUTO 21004KT 10SM CLR 27/19 A3006 RMK AO2 T02670193
KSEP 181315Z AUTO 00000KT 10SM CLR 25/18 A3006 RMK AO2 T02490181
KSEP 181255Z AUTO 00000KT 10SM CLR 24/18 A3005 RMK AO2 T02370177
KSEP 181235Z AUTO 00000KT 10SM CLR 23/17 A3005 RMK AO2 T02320172
KSEP 181215Z AUTO 00000KT 10SM CLR 23/17 A3004 RMK AO2 T02270170
KSEP 181155Z AUTO 00000KT 10SM CLR 22/17 A3004 RMK AO2 T02230168 10265 20223
KSEP 181135Z AUTO 00000KT 10SM CLR 22/17 A3003 RMK AO2 T02240168
KSEP 181115Z AUTO 00000KT 10SM CLR 23/17 A3002 RMK AO2 T02270167
KSEP 181055Z AUTO 00000KT 10SM CLR 23/17 A3002 RMK AO2 T02270166
KSEP 181035Z AUTO 00000KT 10SM SCT120 23/17 A3002 RMK AO2 T02280165
KSEP 181015Z AUTO 00000KT 10SM CLR 23/16 A3002 RMK AO2 T02300164
KSEP 180955Z AUTO 00000KT 10SM SCT095 23/17 A3002 RMK AO2 T02310165
KSEP 180935Z AUTO 00000KT 10SM CLR 23/16 A3003 RMK AO2 T02340163
KSEP 180915Z AUTO 00000KT 10SM CLR 24/16 A3003 RMK AO2 T02400161
KSEP 180855Z AUTO 00000KT 10SM CLR 24/16 A3003 RMK AO2 T02400160
KSEP 180835Z AUTO 00000KT 10SM CLR 24/16 A3002 RMK AO2 T02400160
KSEP 180815Z AUTO 00000KT 10SM SCT090 24/16 A3002 RMK AO2 T02440155
KSEP 180755Z AUTO 00000KT 10SM SCT095 SCT110 25/16 A3003 RMK AO2 T02470155
KSEP 180735Z AUTO 00000KT 10SM SCT080 SCT110 25/15 A3003 RMK AO2 T02500151
KSEP 180715Z AUTO 00000KT 10SM SCT110 25/14 A3003 RMK AO2 T02540143
KSEP 180655Z AUTO 00000KT 10SM SCT110 25/14 A3002 RMK AO2 T02530141
KSEP 180635Z AUTO 00000KT 10SM CLR 26/14 A3002 RMK AO2 T02580136
KSEP 180615Z AUTO 00000KT 10SM CLR 26/13 A3003 RMK AO2 T02600134
KSEP 180555Z AUTO 00000KT 10SM SCT100 27/13 A3004 RMK AO2 T02650127 10381 20265 403970231
KSEP 180535Z AUTO 00000KT 10SM CLR 27/12 A3004 RMK AO2 T02670121
KSEP 180515Z AUTO 00000KT 10SM SCT100 SCT120 27/12 A3004 RMK AO2 T02710117
KSEP 180455Z AUTO 00000KT 10SM CLR 28/11 A3003 RMK AO2 T02760111
KSEP 180435Z AUTO 00000KT 10SM CLR 28/10 A3003 RMK AO2 T02830103
KSEP 180415Z AUTO 00000KT 10SM SCT120 29/10 A3002 RMK AO2 T02900099
KSEP 180355Z AUTO 15003KT 10SM SCT120 29/09 A3002 RMK AO2 T02910090
KSEP 180335Z AUTO 16004KT 10SM CLR 30/09 A3001 RMK AO2 T02960086
KSEP 180315Z AUTO 00000KT 7SM CLR 30/08 A3000 RMK AO2 T02950082
KSEP 180255Z AUTO 00000KT 10SM CLR 30/09 A3000 RMK AO2 T02950085
KSEP 180235Z AUTO 00000KT 10SM CLR 31/08 A2999 RMK AO2 T03070081
KSEP 180215Z AUTO 00000KT 7SM SCT110 31/10 A2999 RMK AO2 T03110100
KSEP 180155Z AUTO 00000KT 7SM CLR 32/09 A3000 RMK AO2 T03210092
KSEP 180135Z AUTO 00000KT 7SM CLR 34/10 A2999 RMK AO2 T03360104
KSEP 180115Z AUTO 00000KT 7SM CLR 35/07 A2999 RMK AO2 T03540069
KSEP 180055Z AUTO 00000KT 7SM CLR 37/05 A2999 RMK AO2 T03650054
KSEP 180035Z AUTO 00000KT 7SM CLR 37/05 A2999 RMK AO2 T03720045
KSEP 180015Z AUTO 00000KT 7SM CLR 38/04 A2999 RMK AO2 T03790043
KSEP 172355Z AUTO 25005KT 7SM CLR 38/05 A2999 RMK AO2 T03810053 10397 20357
KSEP 172335Z AUTO 23006KT 7SM CLR 39/06 A2999 RMK AO2 T03850058
KSEP 172315Z AUTO 24006KT 7SM CLR 39/06 A2999 RMK AO2 T03870059
KSEP 172255Z AUTO 26006KT 7SM CLR 39/06 A3000 RMK AO2 T03890062
KSEP 172235Z AUTO 25004KT 7SM CLR 39/06 A3000 RMK AO2 T03900064
KSEP 172215Z AUTO 00000KT 7SM CLR 39/06 A3001 RMK AO2 T03900063
KSEP 172155Z AUTO 19004KT 7SM CLR 39/07 A3001 RMK AO2 T03920070
KSEP 172135Z AUTO 15005KT 7SM CLR 40/08 A3001 RMK AO2 T03950079
KSEP 172115Z AUTO 00000KT 7SM CLR 39/09 A3002 RMK AO2 T03910092
KSEP 172055Z AUTO 17004KT 7SM CLR 39/10 A3003 RMK AO2 T03890103
KSEP 172035Z AUTO 00000KT 7SM CLR 39/11 A3004 RMK AO2 T03860107
KSEP 172015Z AUTO 00000KT 7SM CLR 39/12 A3004 RMK AO2 T03850119
KSEP 171955Z AUTO 00000KT 7SM CLR 38/12 A3006 RMK AO2 T03830122
KSEP 171935Z AUTO 23004KT 7SM CLR 38/12 A3006 RMK AO2 T03760120
KSEP 171915Z AUTO 00000KT 7SM CLR 37/12 A3007 RMK AO2 T03730123
KSEP 171855Z AUTO 00000KT 5SM CLR 37/13 A3008 RMK AO2 T03680125
KSEP 171835Z AUTO 00000KT 7SM CLR 37/12 A3009 RMK AO2 T03650124
KSEP 171815Z AUTO 26005KT 7SM CLR 36/12 A3010 RMK AO2 T03640123
KSEP 171755Z AUTO 00000KT 7SM CLR 36/12 A3010 RMK AO2 T03570118 10359 20235
KSEP 171735Z AUTO 24008KT 7SM CLR 36/12 A3011 RMK AO2 T03570120
KSEP 171715Z AUTO 27005KT 5SM CLR 35/13 A3012 RMK AO2 T03510133
KSEP 171655Z AUTO 25006KT 5SM CLR 34/14 A3012 RMK AO2 T03430139
KSEP 171635Z AUTO 25006KT 7SM CLR 34/15 A3012 RMK AO2 T03380149
KSEP 171615Z AUTO 24007KT 7SM CLR 33/15 A3012 RMK AO2 T03300149
KSEP 171555Z AUTO 24008KT 7SM CLR 33/15 A3012 RMK AO2 T03270152
KSEP 171535Z AUTO 23007KT 7SM CLR 32/17 A3012 RMK AO2 T03210169
KSEP 171515Z AUTO 24010KT 7SM CLR 31/17 A3011 RMK AO2 T03110174
KSEP 171455Z AUTO 22008G16KT 7SM CLR 30/18 A3011 RMK AO2 T03040183
KSEP 171435Z AUTO 25010G15KT 7SM CLR 30/19 A3012 RMK AO2 T02950191
KSEP 171415Z AUTO 24010G14KT 7SM CLR 29/20 A3011 RMK AO2 T02860199